Time;durP1;ratioP1;P1;durP2;ratioP2;P2;SDS_P1;SDS_P2;PMS_P1;PMS_P2;Temp;Humidity;BMP_temperature;BMP_pressure;BME280_temperature;BME280_humidity;BME280_pressure;Samples;Min_cycle;Max_cycle;Signal;HPM_P1;HPM_P2
2022/03/25 00:01:28;;;;;;;42.43;26.33;;;5.30;99.90;;;;;;5093687;28;20254;-49
2022/03/25 00:03:53;;;;;;;39.03;25.47;;;5.30;99.90;;;;;;5093966;28;20640;-47
2022/03/25 00:06:19;;;;;;;46.87;24.87;;;5.30;99.90;;;;;;5093637;28;20229;-49
2022/03/25 00:08:45;;;;;;;39.33;24.13;;;5.20;99.90;;;;;;5093163;28;20178;-48
2022/03/25 00:11:11;;;;;;;37.57;23.60;;;5.20;99.90;;;;;;5093545;28;20556;-47
2022/03/25 00:13:36;;;;;;;40.07;24.47;;;5.20;99.90;;;;;;5093846;28;20547;-47
2022/03/25 00:16:06;;;;;;;41.03;24.07;;;5.10;99.90;;;;;;5092111;28;20220;-48
2022/03/25 00:18:33;;;;;;;38.13;22.87;;;5.10;99.90;;;;;;5093654;28;20178;-47
2022/03/25 00:20:59;;;;;;;35.27;22.67;;;5.00;99.90;;;;;;5093693;28;20186;-50
2022/03/25 00:23:25;;;;;;;38.13;25.63;;;5.00;99.90;;;;;;5093405;28;20181;-48
2022/03/25 00:25:50;;;;;;;39.63;23.23;;;4.90;99.90;;;;;;5093383;28;20590;-47
2022/03/25 00:28:16;;;;;;;36.90;22.97;;;4.80;99.90;;;;;;5093506;28;20243;-49
2022/03/25 00:30:43;;;;;;;36.13;21.87;;;4.80;99.90;;;;;;5091982;28;20175;-47
2022/03/25 00:33:09;;;;;;;34.53;21.57;;;4.80;99.90;;;;;;5093432;28;20626;-48
2022/03/25 00:35:34;;;;;;;36.57;22.73;;;4.70;99.90;;;;;;5093373;28;20225;-49
2022/03/25 00:38:00;;;;;;;39.67;23.43;;;4.70;99.90;;;;;;5093167;28;20423;-50
2022/03/25 00:40:26;;;;;;;36.90;24.00;;;4.60;99.90;;;;;;5093241;28;20185;-47
2022/03/25 00:42:52;;;;;;;37.17;23.60;;;4.50;99.90;;;;;;5093628;28;20267;-47
2022/03/25 00:45:17;;;;;;;37.57;24.07;;;4.50;99.90;;;;;;5093189;28;20194;-49
2022/03/25 00:47:43;;;;;;;35.40;22.53;;;4.50;99.90;;;;;;5093322;28;20216;-47
2022/03/25 00:50:10;;;;;;;38.27;24.00;;;4.40;99.90;;;;;;5093252;28;20178;-49
2022/03/25 00:52:37;;;;;;;37.67;23.53;;;4.40;99.90;;;;;;5094587;28;20178;-48
2022/03/25 00:55:04;;;;;;;38.13;23.37;;;4.30;99.90;;;;;;5094118;28;20198;-49
2022/03/25 00:57:29;;;;;;;39.13;23.03;;;4.30;99.90;;;;;;5093450;28;20507;-48
2022/03/25 00:59:55;;;;;;;40.87;24.80;;;4.20;99.90;;;;;;5093731;28;20188;-47
2022/03/25 01:02:21;;;;;;;44.73;24.60;;;4.20;99.90;;;;;;5093331;28;20175;-49
2022/03/25 01:04:46;;;;;;;40.73;22.27;;;4.10;99.90;;;;;;5092892;28;20706;-47
2022/03/25 01:07:12;;;;;;;37.57;23.63;;;4.10;99.90;;;;;;5092838;28;20288;-49
2022/03/25 01:09:39;;;;;;;35.90;22.53;;;4.10;99.90;;;;;;5093151;28;20177;-49
2022/03/25 01:12:06;;;;;;;36.70;22.47;;;4.10;99.90;;;;;;5092928;28;20209;-49
2022/03/25 01:14:32;;;;;;;36.50;21.23;;;4.00;99.90;;;;;;5093359;28;20193;-48
2022/03/25 01:16:57;;;;;;;35.20;22.87;;;4.00;99.90;;;;;;5093347;28;20599;-47
2022/03/25 01:19:23;;;;;;;35.27;21.37;;;4.00;99.90;;;;;;5093017;28;20179;-48
2022/03/25 01:21:49;;;;;;;35.17;22.80;;;3.90;99.90;;;;;;5096278;28;20177;-47
2022/03/25 01:24:14;;;;;;;41.83;22.43;;;3.80;99.90;;;;;;5096881;28;20182;-48
2022/03/25 01:26:40;;;;;;;42.67;23.53;;;3.80;99.90;;;;;;5096692;28;20653;-47
2022/03/25 01:29:06;;;;;;;38.93;22.83;;;3.80;99.90;;;;;;5096733;28;20181;-48
2022/03/25 01:31:32;;;;;;;36.67;22.80;;;3.70;99.90;;;;;;5096744;28;20184;-48
2022/03/25 01:33:58;;;;;;;31.83;20.23;;;3.70;99.90;;;;;;5096902;28;20166;-48
2022/03/25 01:36:24;;;;;;;29.67;18.97;;;3.70;99.90;;;;;;5096287;28;20204;-48
2022/03/25 01:38:50;;;;;;;34.30;21.17;;;3.60;99.90;;;;;;5096555;28;20183;-46
2022/03/25 01:41:17;;;;;;;43.07;22.63;;;3.50;99.90;;;;;;5096310;28;20168;-48
2022/03/25 01:43:50;;;;;;;34.67;22.17;;;3.40;99.90;;;;;;5096496;28;20175;-46
2022/03/25 01:46:16;;;;;;;35.57;21.77;;;3.40;99.90;;;;;;5096139;28;20192;-49
2022/03/25 01:48:41;;;;;;;34.37;20.53;;;3.40;99.90;;;;;;5096997;28;20179;-48
2022/03/25 01:51:07;;;;;;;33.67;20.93;;;3.40;99.90;;;;;;5096361;28;20178;-47
2022/03/25 01:53:33;;;;;;;33.53;21.47;;;3.40;99.90;;;;;;5096098;28;20535;-47
2022/03/25 01:56:01;;;;;;;34.67;22.30;;;3.30;99.90;;;;;;5096027;28;20536;-48
2022/03/25 01:58:29;;;;;;;37.33;22.43;;;3.40;99.90;;;;;;5096150;28;20175;-47
2022/03/25 02:00:55;;;;;;;37.87;22.73;;;3.40;99.90;;;;;;5096255;28;20179;-48
2022/03/25 02:03:21;;;;;;;38.30;21.67;;;3.30;99.90;;;;;;5096116;28;20183;-47
2022/03/25 02:05:48;;;;;;;34.70;20.50;;;3.30;99.90;;;;;;5095885;28;20278;-46
2022/03/25 02:08:15;;;;;;;32.33;20.50;;;3.30;99.90;;;;;;5095774;28;20199;-47
2022/03/25 02:10:41;;;;;;;38.30;21.37;;;3.20;99.90;;;;;;5095771;28;20301;-48
2022/03/25 02:13:11;;;;;;;35.30;21.47;;;3.20;99.90;;;;;;5095740;28;20171;-47
2022/03/25 02:15:43;;;;;;;39.47;22.27;;;3.20;99.90;;;;;;5095425;28;20208;-48
2022/03/25 02:18:15;;;;;;;37.07;23.07;;;3.20;99.90;;;;;;5094422;28;20242;-48
2022/03/25 02:20:42;;;;;;;36.57;21.80;;;3.20;99.90;;;;;;5095637;28;20251;-46
2022/03/25 02:23:08;;;;;;;33.43;22.17;;;3.10;99.90;;;;;;5095608;28;20548;-48
2022/03/25 02:25:34;;;;;;;32.50;20.27;;;3.10;99.90;;;;;;5095565;28;20598;-47
2022/03/25 02:28:01;;;;;;;36.63;21.73;;;3.10;99.90;;;;;;5095435;28;20228;-47
2022/03/25 02:30:28;;;;;;;37.13;21.27;;;3.10;99.90;;;;;;5095445;28;20177;-48
2022/03/25 02:33:00;;;;;;;34.73;21.00;;;3.00;99.90;;;;;;5095166;28;20183;-48
2022/03/25 02:35:49;;;;;;;37.13;20.27;;;3.00;99.90;;;;;;5095679;28;20199;-47
2022/03/25 02:38:20;;;;;;;34.43;20.23;;;3.00;99.90;;;;;;5095489;28;20624;-47
2022/03/25 02:40:46;;;;;;;32.40;19.37;;;2.90;99.90;;;;;;5095563;28;20174;-46
2022/03/25 02:43:12;;;;;;;33.63;19.70;;;2.90;99.90;;;;;;5096230;28;20278;-48
2022/03/25 02:45:38;;;;;;;31.10;19.63;;;2.80;99.90;;;;;;5093791;28;20259;-48
2022/03/25 02:48:05;;;;;;;30.90;19.17;;;2.80;99.90;;;;;;5094917;28;20286;-48
2022/03/25 02:50:31;;;;;;;33.17;19.53;;;2.70;99.90;;;;;;5095013;28;20179;-47
2022/03/25 02:52:58;;;;;;;33.23;20.00;;;2.70;99.90;;;;;;5095385;28;20185;-42
2022/03/25 02:55:24;;;;;;;38.23;20.73;;;2.60;99.90;;;;;;5095871;28;20202;-41
2022/03/25 02:57:51;;;;;;;32.73;19.70;;;2.60;99.90;;;;;;5109118;28;20191;-42
2022/03/25 03:00:17;;;;;;;33.90;21.63;;;2.60;99.90;;;;;;5109895;28;20205;-42
2022/03/25 03:02:43;;;;;;;35.10;20.57;;;2.50;99.90;;;;;;5108496;28;20187;-42
2022/03/25 03:05:08;;;;;;;41.43;23.23;;;2.50;99.90;;;;;;5110307;28;20606;-44
2022/03/25 03:07:38;;;;;;;42.53;23.53;;;2.40;99.90;;;;;;5109587;28;20232;-44
2022/03/25 03:10:08;;;;;;;39.17;23.20;;;2.40;99.90;;;;;;5109205;28;20178;-41
2022/03/25 03:12:35;;;;;;;47.63;23.60;;;2.40;99.90;;;;;;5108158;28;20163;-43
2022/03/25 03:15:03;;;;;;;42.80;25.90;;;2.40;99.90;;;;;;5106448;28;20190;-42
2022/03/25 03:17:28;;;;;;;44.97;24.93;;;2.30;99.90;;;;;;5098521;28;20179;-40
2022/03/25 03:19:54;;;;;;;43.87;26.03;;;2.30;99.90;;;;;;5096425;28;20175;-42
2022/03/25 03:22:21;;;;;;;44.00;26.40;;;2.30;99.90;;;;;;5094231;28;20191;-41
2022/03/25 03:24:46;;;;;;;42.37;24.90;;;2.40;99.90;;;;;;5094647;28;20179;-42
2022/03/25 03:27:12;;;;;;;44.73;25.67;;;2.40;99.90;;;;;;5095316;28;20199;-40
2022/03/25 03:29:38;;;;;;;47.07;26.23;;;2.30;99.90;;;;;;5095081;28;20162;-42
2022/03/25 03:32:05;;;;;;;51.53;26.00;;;2.30;99.90;;;;;;5094954;28;20265;-41
2022/03/25 03:34:31;;;;;;;45.63;25.40;;;2.20;99.90;;;;;;5094808;28;20206;-42
2022/03/25 03:36:57;;;;;;;46.87;26.63;;;2.20;99.90;;;;;;5094327;28;20203;-42
2022/03/25 03:39:22;;;;;;;41.63;24.87;;;2.20;99.90;;;;;;5094549;28;20521;-41
2022/03/25 03:41:48;;;;;;;45.60;26.90;;;2.20;99.90;;;;;;5094864;28;20640;-41
2022/03/25 03:44:14;;;;;;;45.00;26.37;;;2.20;99.90;;;;;;5093146;28;20186;-43
2022/03/25 03:46:40;;;;;;;41.07;24.50;;;2.10;99.90;;;;;;5094123;28;20198;-41
2022/03/25 03:49:06;;;;;;;45.70;25.80;;;2.10;99.90;;;;;;5094024;28;20186;-40
2022/03/25 03:51:31;;;;;;;46.97;27.23;;;2.10;99.90;;;;;;5094336;28;20175;-40
2022/03/25 03:53:57;;;;;;;50.83;27.60;;;2.10;99.90;;;;;;5094710;28;20265;-40
2022/03/25 03:56:23;;;;;;;43.97;26.30;;;2.10;99.90;;;;;;5095118;28;20202;-43
2022/03/25 03:58:49;;;;;;;41.17;24.77;;;2.00;99.90;;;;;;5094619;28;20190;-40
2022/03/25 04:01:15;;;;;;;42.73;24.83;;;2.00;99.90;;;;;;5094624;28;20231;-40
2022/03/25 04:03:40;;;;;;;42.17;25.27;;;2.00;99.90;;;;;;5114301;22;20709;-42
2022/03/25 04:06:06;;;;;;;42.83;24.70;;;1.90;99.90;;;;;;5112618;28;20598;-41
2022/03/25 04:08:32;;;;;;;42.77;25.10;;;1.90;99.90;;;;;;5113831;28;20202;-42
2022/03/25 04:10:58;;;;;;;44.37;25.77;;;1.80;99.90;;;;;;5113960;28;20249;-41
2022/03/25 04:13:24;;;;;;;45.17;26.43;;;1.80;99.90;;;;;;5113978;28;20174;-40
2022/03/25 04:15:50;;;;;;;41.30;25.57;;;1.80;99.90;;;;;;5113862;28;20193;-43
2022/03/25 04:18:17;;;;;;;42.70;25.33;;;1.70;99.90;;;;;;5115937;28;20708;-44
2022/03/25 04:20:42;;;;;;;47.67;26.50;;;1.70;99.90;;;;;;5118616;28;20205;-46
2022/03/25 04:23:08;;;;;;;48.43;28.60;;;1.60;99.90;;;;;;5118515;28;20691;-45
2022/03/25 04:25:34;;;;;;;50.73;27.43;;;1.60;99.90;;;;;;5116970;28;20199;-45
2022/03/25 04:28:00;;;;;;;53.13;29.37;;;1.60;99.90;;;;;;5116658;28;20267;-47
2022/03/25 04:30:30;;;;;;;51.77;28.33;;;1.60;99.90;;;;;;5115448;28;20646;-46
2022/03/25 04:32:57;;;;;;;51.70;29.17;;;1.60;99.90;;;;;;5116364;28;20224;-46
2022/03/25 04:35:24;;;;;;;49.10;28.37;;;1.50;99.90;;;;;;5116281;28;20602;-44
2022/03/25 04:37:50;;;;;;;47.40;27.10;;;1.50;99.90;;;;;;5115927;28;20178;-45
2022/03/25 04:40:18;;;;;;;51.40;28.77;;;1.50;99.90;;;;;;5117687;28;20311;-46
2022/03/25 04:42:44;;;;;;;45.20;25.87;;;1.50;99.90;;;;;;5116756;28;20182;-45
2022/03/25 04:45:10;;;;;;;50.87;27.13;;;1.40;99.90;;;;;;5116938;28;20193;-44
2022/03/25 04:47:36;;;;;;;54.87;28.30;;;1.40;99.90;;;;;;5116770;28;20203;-45
2022/03/25 04:50:02;;;;;;;47.50;26.33;;;1.40;99.90;;;;;;5117147;28;20175;-46
2022/03/25 04:52:28;;;;;;;55.20;27.47;;;1.40;99.90;;;;;;5116983;28;20178;-45
2022/03/25 04:54:53;;;;;;;46.33;27.57;;;1.30;99.90;;;;;;5116766;28;20179;-46
2022/03/25 04:57:19;;;;;;;53.33;29.70;;;1.30;99.90;;;;;;5118923;28;20173;-43
2022/03/25 04:59:44;;;;;;;48.13;27.13;;;1.30;99.90;;;;;;5120475;28;20641;-44
2022/03/25 05:02:10;;;;;;;48.87;26.57;;;1.30;99.90;;;;;;5119861;28;20174;-44
2022/03/25 05:04:36;;;;;;;53.30;27.70;;;1.30;99.90;;;;;;5119975;28;20550;-45
2022/03/25 05:07:02;;;;;;;48.60;27.43;;;1.20;99.90;;;;;;5119200;28;20273;-45
2022/03/25 05:09:28;;;;;;;44.77;25.40;;;1.20;99.90;;;;;;5118259;28;20683;-45
2022/03/25 05:11:53;;;;;;;49.20;27.37;;;1.20;99.90;;;;;;5119506;28;20245;-45
2022/03/25 05:14:19;;;;;;;48.63;27.37;;;1.10;99.90;;;;;;5120054;28;20214;-46
2022/03/25 05:16:44;;;;;;;49.30;28.07;;;1.10;99.90;;;;;;5120876;28;20212;-45
2022/03/25 05:19:10;;;;;;;53.77;27.67;;;1.10;99.90;;;;;;5119387;28;20190;-44
2022/03/25 05:21:36;;;;;;;51.40;26.80;;;1.10;99.90;;;;;;5117871;28;20185;-46
2022/03/25 05:24:01;;;;;;;43.00;26.20;;;1.10;99.90;;;;;;5118985;28;20539;-45
2022/03/25 05:26:27;;;;;;;44.97;25.57;;;1.10;99.90;;;;;;5118943;28;20213;-45
2022/03/25 05:28:52;;;;;;;46.80;26.57;;;1.00;99.90;;;;;;5118929;28;20237;-45
2022/03/25 05:31:18;;;;;;;47.23;27.10;;;1.00;99.90;;;;;;5118898;28;20650;-44
2022/03/25 05:33:43;;;;;;;42.47;26.07;;;1.00;99.90;;;;;;5118788;28;20638;-44
2022/03/25 05:36:10;;;;;;;42.73;25.07;;;0.90;99.90;;;;;;5118606;28;20680;-46
2022/03/25 05:38:35;;;;;;;44.33;25.67;;;0.90;99.90;;;;;;5118889;28;20188;-46
2022/03/25 05:41:01;;;;;;;42.53;24.50;;;0.90;99.90;;;;;;5119155;28;20189;-47
2022/03/25 05:43:28;;;;;;;48.13;26.10;;;0.90;99.90;;;;;;5117905;28;20174;-46
2022/03/25 05:45:53;;;;;;;46.63;26.13;;;0.90;99.90;;;;;;5117773;28;20202;-43
2022/03/25 05:48:19;;;;;;;48.80;26.03;;;0.90;99.90;;;;;;5117699;28;20212;-47
2022/03/25 05:50:44;;;;;;;47.17;25.27;;;0.90;99.90;;;;;;5117344;28;20181;-45
2022/03/25 05:53:10;;;;;;;44.53;24.77;;;0.80;99.90;;;;;;5117205;28;20184;-46
2022/03/25 05:55:35;;;;;;;47.43;26.13;;;0.80;99.90;;;;;;5117203;28;20201;-45
2022/03/25 05:58:01;;;;;;;46.47;26.73;;;0.90;99.90;;;;;;5117116;28;20184;-46
2022/03/25 06:00:27;;;;;;;44.00;25.70;;;0.90;99.90;;;;;;5116992;28;20216;-45
2022/03/25 06:02:52;;;;;;;47.13;25.93;;;0.90;99.90;;;;;;5116710;28;20185;-43
2022/03/25 06:05:18;;;;;;;44.40;25.37;;;0.90;99.90;;;;;;5116820;28;20220;-45
2022/03/25 06:07:44;;;;;;;44.47;25.03;;;0.90;99.90;;;;;;5115807;28;20213;-45
2022/03/25 06:10:12;;;;;;;51.17;27.20;;;1.00;99.90;;;;;;5116950;28;20714;-44
2022/03/25 06:12:39;;;;;;;45.90;26.47;;;1.00;99.90;;;;;;5117245;28;20183;-44
2022/03/25 06:15:05;;;;;;;46.70;25.87;;;1.00;99.90;;;;;;5116564;28;20243;-45
2022/03/25 06:17:31;;;;;;;48.53;26.70;;;1.00;99.90;;;;;;5116226;28;20188;-43
2022/03/25 06:19:57;;;;;;;55.07;28.40;;;1.10;99.90;;;;;;5116356;28;20411;-48
2022/03/25 06:22:27;;;;;;;51.00;28.20;;;1.10;99.90;;;;;;5116478;28;20206;-46
2022/03/25 06:24:53;;;;;;;52.63;29.00;;;1.20;99.90;;;;;;5116092;28;20653;-45
2022/03/25 06:27:19;;;;;;;57.67;30.23;;;1.20;99.90;;;;;;5116246;28;20219;-45
2022/03/25 06:29:45;;;;;;;51.17;28.30;;;1.30;99.90;;;;;;5116499;27;20181;-46
2022/03/25 06:32:11;;;;;;;52.03;29.33;;;1.40;99.90;;;;;;5116488;28;20501;-45
2022/03/25 06:34:36;;;;;;;52.30;29.77;;;1.50;99.90;;;;;;5116565;28;20184;-44
2022/03/25 06:37:03;;;;;;;57.30;32.83;;;1.70;99.90;;;;;;5116405;28;20204;-45
2022/03/25 06:39:29;;;;;;;64.10;35.63;;;1.90;99.90;;;;;;5117137;27;20185;-45
2022/03/25 06:41:54;;;;;;;67.67;34.00;;;2.10;99.90;;;;;;5116527;28;20229;-47
2022/03/25 06:44:20;;;;;;;64.40;35.27;;;2.20;99.90;;;;;;5116776;28;20649;-45
2022/03/25 06:46:46;;;;;;;66.67;35.77;;;2.40;99.90;;;;;;5116515;28;20710;-46
2022/03/25 06:49:12;;;;;;;61.07;35.17;;;2.60;99.90;;;;;;5116443;28;20262;-46
2022/03/25 06:51:37;;;;;;;59.70;35.90;;;2.70;99.90;;;;;;5116275;28;20180;-45
2022/03/25 06:54:03;;;;;;;74.30;37.50;;;2.90;99.90;;;;;;5116482;28;20179;-43
2022/03/25 06:56:32;;;;;;;65.80;34.67;;;3.10;99.90;;;;;;5116451;28;20281;-46
2022/03/25 06:58:58;;;;;;;66.03;38.10;;;3.20;99.90;;;;;;5116160;28;20189;-45
2022/03/25 07:01:25;;;;;;;73.07;39.80;;;3.40;99.90;;;;;;5116628;28;20172;-45
2022/03/25 07:03:51;;;;;;;74.80;40.90;;;3.60;99.90;;;;;;5116455;28;20206;-43
2022/03/25 07:06:23;;;;;;;79.43;42.70;;;3.80;99.90;;;;;;5116630;28;20279;-46
2022/03/25 07:08:54;;;;;;;74.10;41.47;;;3.90;99.90;;;;;;5115616;28;20268;-44
2022/03/25 07:11:21;;;;;;;72.53;39.97;;;4.10;99.90;;;;;;5116827;28;20180;-45
2022/03/25 07:13:47;;;;;;;78.07;42.80;;;4.30;99.90;;;;;;5117229;28;20177;-45
2022/03/25 07:16:12;;;;;;;73.23;41.40;;;4.50;99.90;;;;;;5117276;28;20213;-45
2022/03/25 07:18:38;;;;;;;83.30;44.17;;;4.60;99.90;;;;;;5117956;28;20188;-45
2022/03/25 07:21:04;;;;;;;78.83;42.80;;;4.80;99.90;;;;;;5117880;28;20181;-43
2022/03/25 07:23:30;;;;;;;85.70;44.67;;;5.00;99.90;;;;;;5117995;28;20208;-46
2022/03/25 07:25:55;;;;;;;79.00;44.23;;;5.30;99.90;;;;;;5118614;28;20198;-45
2022/03/25 07:28:21;;;;;;;83.57;45.00;;;5.50;99.90;;;;;;5119300;28;20750;-45
2022/03/25 07:30:47;;;;;;;83.27;45.00;;;5.60;99.90;;;;;;5119857;28;20177;-45
2022/03/25 07:33:12;;;;;;;88.87;44.63;;;5.70;99.90;;;;;;5120058;28;20209;-46
2022/03/25 07:35:38;;;;;;;92.83;46.37;;;5.90;99.90;;;;;;5120614;28;20187;-44
2022/03/25 07:38:06;;;;;;;82.63;45.07;;;6.00;99.90;;;;;;5120970;28;20189;-45
2022/03/25 07:40:32;;;;;;;78.30;43.53;;;6.10;99.90;;;;;;5118915;28;20606;-45
2022/03/25 07:42:58;;;;;;;80.83;45.00;;;6.30;99.90;;;;;;5118284;28;20640;-45
2022/03/25 07:45:24;;;;;;;80.70;44.60;;;6.50;99.90;;;;;;5118546;28;20198;-45
2022/03/25 07:47:50;;;;;;;84.43;45.30;;;6.70;99.90;;;;;;5117629;28;20243;-46
2022/03/25 07:50:19;;;;;;;84.17;45.10;;;6.90;99.90;;;;;;5117898;28;20170;-45
2022/03/25 07:52:46;;;;;;;80.80;43.13;;;7.10;99.90;;;;;;5117405;28;20201;-44
2022/03/25 07:55:13;;;;;;;86.97;46.53;;;7.30;99.90;;;;;;5116772;28;20206;-45
2022/03/25 07:57:39;;;;;;;91.63;48.73;;;7.50;99.90;;;;;;5116892;28;20177;-45
2022/03/25 08:00:11;;;;;;;79.63;42.70;;;7.60;99.90;;;;;;5116947;28;20180;-46
2022/03/25 08:02:38;;;;;;;73.50;41.57;;;7.70;99.90;;;;;;5117289;28;20547;-45
2022/03/25 08:05:06;;;;;;;75.07;42.27;;;7.80;99.90;;;;;;5117308;28;20316;-46
2022/03/25 08:07:31;;;;;;;73.43;41.40;;;7.90;99.90;;;;;;5117665;28;20195;-47
2022/03/25 08:09:58;;;;;;;76.77;41.07;;;8.00;99.90;;;;;;5117819;28;20173;-45
2022/03/25 08:12:23;;;;;;;70.00;41.40;;;8.10;99.90;;;;;;5117553;28;20551;-46
2022/03/25 08:14:49;;;;;;;71.60;40.17;;;9.10;99.90;;;;;;5117586;28;20175;-45
2022/03/25 08:17:17;;;;;;;70.00;40.17;;;8.30;99.90;;;;;;5117710;28;20188;-44
2022/03/25 08:19:43;;;;;;;76.47;41.27;;;8.40;99.90;;;;;;5116510;28;20600;-46
2022/03/25 08:22:08;;;;;;;72.70;40.20;;;8.50;99.90;;;;;;5118042;28;20174;-45
2022/03/25 08:30:02;;;;;;;67.27;39.30;;;8.90;99.90;;;;;;5115862;28;20204;-45
2022/03/25 08:32:27;;;;;;;68.00;40.23;;;9.00;99.90;;;;;;5114478;28;20644;-41
2022/03/25 08:34:53;;;;;;;65.90;39.70;;;9.10;99.90;;;;;;5114050;28;20168;-42
2022/03/25 08:37:19;;;;;;;75.67;41.83;;;9.30;99.90;;;;;;5114107;28;20577;-40
2022/03/25 08:39:44;;;;;;;67.00;40.23;;;9.30;99.90;;;;;;5112438;28;20658;-40
2022/03/25 08:42:10;;;;;;;69.17;39.83;;;9.50;99.90;;;;;;5113677;28;20178;-38
2022/03/25 08:44:36;;;;;;;67.03;39.20;;;9.80;99.90;;;;;;5113622;28;20320;-37
2022/03/25 08:47:03;;;;;;;66.27;38.97;;;9.90;99.90;;;;;;5113536;28;20206;-41
2022/03/25 08:49:30;;;;;;;66.03;39.13;;;10.00;99.90;;;;;;5113417;28;20266;-40
2022/03/25 08:51:55;;;;;;;65.63;38.00;;;10.20;99.90;;;;;;5113740;28;20183;-39
2022/03/25 08:54:21;;;;;;;59.53;36.53;;;10.40;99.90;;;;;;5113772;28;20186;-41
2022/03/25 08:56:47;;;;;;;66.40;37.97;;;10.40;99.90;;;;;;5113344;28;20200;-42
2022/03/25 08:59:14;;;;;;;59.23;35.67;;;10.60;99.90;;;;;;5113418;28;20203;-39
2022/03/25 09:01:39;;;;;;;59.97;36.90;;;10.70;99.90;;;;;;5112129;28;20179;-41
2022/03/25 09:04:05;;;;;;;63.33;35.07;;;10.80;99.90;;;;;;5113357;28;20672;-40
2022/03/25 09:06:31;;;;;;;65.60;38.07;;;11.00;99.90;;;;;;5113200;28;20288;-39
2022/03/25 09:08:56;;;;;;;62.20;36.17;;;11.10;99.90;;;;;;5113369;28;20181;-41
2022/03/25 09:11:22;;;;;;;62.23;35.53;;;11.20;99.90;;;;;;5112084;28;20185;-38
2022/03/25 09:13:48;;;;;;;59.07;35.60;;;11.20;99.90;;;;;;5113583;28;20174;-40
2022/03/25 09:16:16;;;;;;;57.07;35.33;;;11.40;99.90;;;;;;5111905;28;20687;-39
2022/03/25 09:18:41;;;;;;;58.97;34.93;;;11.50;99.90;;;;;;5111927;28;20185;-40
2022/03/25 09:21:07;;;;;;;56.57;34.73;;;11.60;99.90;;;;;;5113173;28;20181;-40
2022/03/25 09:23:33;;;;;;;64.77;35.30;;;11.70;99.90;;;;;;5113192;28;20185;-39
2022/03/25 09:26:00;;;;;;;56.47;33.87;;;11.80;99.90;;;;;;5113329;28;20202;-39
2022/03/25 09:28:26;;;;;;;54.20;33.50;;;11.90;99.90;;;;;;5113355;28;20550;-40
2022/03/25 09:30:53;;;;;;;60.97;35.03;;;12.00;99.90;;;;;;5113376;28;20181;-40
2022/03/25 09:33:18;;;;;;;60.47;36.67;;;12.10;99.90;;;;;;5113679;28;20193;-40
2022/03/25 09:35:45;;;;;;;49.70;30.33;;;12.20;99.90;;;;;;5112994;28;20684;-39
2022/03/25 09:38:11;;;;;;;48.50;30.50;;;12.30;99.90;;;;;;5113019;28;20718;-41
2022/03/25 09:40:41;;;;;;;51.37;32.37;;;12.40;99.90;;;;;;5113090;28;20662;-40
2022/03/25 09:43:07;;;;;;;51.23;33.07;;;12.40;99.90;;;;;;5115350;28;20155;-41
2022/03/25 09:45:34;;;;;;;56.53;32.37;;;12.60;99.90;;;;;;5116730;28;20683;-39
2022/03/25 09:48:00;;;;;;;55.83;33.73;;;12.70;99.90;;;;;;5116857;28;20280;-41
2022/03/25 09:50:27;;;;;;;52.17;32.70;;;12.80;99.90;;;;;;5116875;28;20554;-40
2022/03/25 09:52:54;;;;;;;48.23;32.00;;;12.90;99.90;;;;;;5116551;28;20172;-39
2022/03/25 09:55:19;;;;;;;56.97;33.60;;;13.00;99.90;;;;;;5116439;28;20208;-40
2022/03/25 09:57:45;;;;;;;48.47;32.40;;;13.20;99.90;;;;;;5117033;28;20646;-41
2022/03/25 10:00:17;;;;;;;54.10;29.93;;;13.30;99.90;;;;;;5116478;28;20643;-39
2022/03/25 10:02:45;;;;;;;48.30;31.80;;;13.50;99.90;;;;;;5116784;28;20182;-38
2022/03/25 10:05:17;;;;;;;47.83;29.03;;;13.50;99.90;;;;;;5116109;27;20275;-40
2022/03/25 10:07:51;;;;;;;43.73;26.00;;;13.70;99.90;;;;;;5114952;28;20285;-41
2022/03/25 10:10:19;;;;;;;42.63;26.77;;;13.80;99.90;;;;;;5116216;28;20653;-40
2022/03/25 10:12:47;;;;;;;38.90;22.60;;;14.00;99.90;;;;;;5116429;28;20177;-39
2022/03/25 10:15:26;;;;;;;35.10;20.57;;;14.10;99.90;;;;;;5116024;28;20194;-42
2022/03/25 10:17:51;;;;;;;38.80;21.53;;;14.40;99.90;;;;;;5116205;28;20684;-41
2022/03/25 10:20:19;;;;;;;46.80;23.30;;;14.60;99.90;;;;;;5116280;28;20205;-38
2022/03/25 10:23:06;;;;;;;37.00;23.40;;;14.70;99.90;;;;;;5116225;28;20190;-39
2022/03/25 10:25:49;;;;;;;38.67;23.50;;;14.70;99.90;;;;;;5116271;27;20606;-39
2022/03/25 10:28:24;;;;;;;38.93;22.10;;;14.80;99.90;;;;;;5116178;28;20597;-39
2022/03/25 10:31:17;;;;;;;38.43;21.67;;;15.00;99.90;;;;;;5116287;27;20248;-41
2022/03/25 10:33:43;;;;;;;31.30;19.67;;;15.00;99.90;;;;;;5116232;28;20158;-41
2022/03/25 10:36:11;;;;;;;32.50;18.47;;;15.10;99.90;;;;;;5115858;28;20694;-42
2022/03/25 10:38:42;;;;;;;29.97;19.00;;;15.20;99.90;;;;;;5116055;28;20181;-40
2022/03/25 10:41:09;;;;;;;31.37;16.17;;;15.30;99.90;;;;;;5116120;28;20178;-39
2022/03/25 10:43:35;;;;;;;32.00;18.67;;;15.40;99.90;;;;;;5116238;28;20174;-42
2022/03/25 10:46:00;;;;;;;30.70;16.10;;;15.50;99.90;;;;;;5115983;28;20289;-42
2022/03/25 10:48:26;;;;;;;29.10;18.27;;;15.60;99.90;;;;;;5115840;28;20197;-40
2022/03/25 10:51:02;;;;;;;33.00;18.07;;;15.70;99.90;;;;;;5115507;28;20178;-41
2022/03/25 10:53:30;;;;;;;32.43;18.13;;;15.80;99.90;;;;;;5115096;28;20166;-40
2022/03/25 10:56:01;;;;;;;31.53;18.13;;;15.90;99.90;;;;;;5115551;28;20822;-42
2022/03/25 10:58:27;;;;;;;32.10;17.80;;;16.10;99.90;;;;;;5115670;28;20158;-42
2022/03/25 11:00:53;;;;;;;32.03;17.80;;;16.20;99.90;;;;;;5115397;28;20178;-41
2022/03/25 11:03:19;;;;;;;33.53;17.97;;;16.20;99.90;;;;;;5115124;28;20180;-43
2022/03/25 11:05:45;;;;;;;31.13;18.90;;;16.10;99.90;;;;;;5115532;28;20282;-41
2022/03/25 11:08:11;;;;;;;33.77;19.07;;;16.20;99.90;;;;;;5115240;28;20284;-41
2022/03/25 11:10:38;;;;;;;30.10;18.27;;;16.20;99.90;;;;;;5115397;28;20173;-40
2022/03/25 11:13:04;;;;;;;29.17;18.17;;;16.20;99.90;;;;;;5115447;28;20201;-40
2022/03/25 11:15:31;;;;;;;32.40;19.60;;;16.20;99.90;;;;;;5115315;28;20212;-42
2022/03/25 11:17:57;;;;;;;31.50;19.60;;;16.20;99.90;;;;;;5115348;27;20174;-40
2022/03/25 11:20:26;;;;;;;34.80;20.03;;;16.30;99.90;;;;;;5115068;28;20661;-40
2022/03/25 11:23:15;;;;;;;32.93;19.47;;;16.40;99.90;;;;;;5115230;28;20174;-41
2022/03/25 11:25:46;;;;;;;31.50;16.63;;;16.50;99.90;;;;;;5114956;28;20297;-42
2022/03/25 11:28:27;;;;;;;24.60;16.27;;;16.60;99.90;;;;;;5115022;28;20194;-41
2022/03/25 11:31:05;;;;;;;25.90;16.70;;;16.70;99.90;;;;;;5115118;28;20166;-42
2022/03/25 11:33:31;;;;;;;24.87;16.73;;;16.80;99.00;;;;;;5114747;28;20186;-42
2022/03/25 11:36:18;;;;;;;25.90;16.23;;;16.70;99.20;;;;;;5115009;28;20232;-41
2022/03/25 11:38:45;;;;;;;28.77;18.70;;;16.80;99.30;;;;;;5115014;28;20604;-42
2022/03/25 11:41:24;;;;;;;32.30;18.40;;;16.80;98.70;;;;;;5114996;28;20192;-42
2022/03/25 11:44:15;;;;;;;33.50;19.87;;;16.80;99.70;;;;;;5115356;28;20170;-42
2022/03/25 11:46:59;;;;;;;34.50;18.50;;;17.00;99.40;;;;;;5114349;28;20198;-41
2022/03/25 11:49:26;;;;;;;24.30;14.27;;;17.00;99.10;;;;;;5114603;28;20206;-42
2022/03/25 11:51:52;;;;;;;24.00;14.40;;;17.10;99.10;;;;;;5114801;28;20198;-42
2022/03/25 11:54:38;;;;;;;24.90;13.70;;;17.10;97.80;;;;;;5114518;28;20221;-41
2022/03/25 11:57:05;;;;;;;14.53;10.90;;;17.10;98.60;;;;;;5115790;28;20210;-40
2022/03/25 11:59:51;;;;;;;22.33;10.77;;;17.10;97.30;;;;;;5116367;28;20182;-41
2022/03/25 12:02:36;;;;;;;21.13;11.43;;;17.00;97.30;;;;;;5120170;28;20192;-47
2022/03/25 12:05:19;;;;;;;16.73;7.73;;;17.00;98.00;;;;;;5116838;28;20194;-46
2022/03/25 12:08:23;;;;;;;17.13;9.50;;;17.00;96.90;;;;;;5113302;28;20198;-46
2022/03/25 12:10:50;;;;;;;19.83;10.53;;;17.20;97.40;;;;;;5114914;28;20177;-48
2022/03/25 12:13:17;;;;;;;19.43;10.40;;;17.20;96.90;;;;;;5116658;28;20178;-46
2022/03/25 12:15:47;;;;;;;18.60;10.27;;;17.20;98.00;;;;;;5114740;28;20198;-43
2022/03/25 12:18:39;;;;;;;16.70;10.43;;;17.20;96.70;;;;;;5114303;28;20178;-44
2022/03/25 12:21:09;;;;;;;19.23;10.57;;;17.20;96.00;;;;;;5114314;28;20201;-46
2022/03/25 12:23:35;;;;;;;20.70;10.73;;;17.20;96.20;;;;;;5114510;28;20261;-45
2022/03/25 12:26:01;;;;;;;20.47;11.40;;;17.20;96.10;;;;;;5114354;28;20237;-44
2022/03/25 12:28:27;;;;;;;27.43;13.27;;;17.30;97.40;;;;;;5114177;28;20206;-45
2022/03/25 12:30:55;;;;;;;24.83;13.97;;;17.40;96.80;;;;;;5114157;28;20541;-46
2022/03/25 12:33:21;;;;;;;23.93;11.87;;;17.50;96.00;;;;;;5112804;28;20189;-45
2022/03/25 12:35:47;;;;;;;23.23;12.20;;;17.50;96.30;;;;;;5114186;28;20560;-47
2022/03/25 12:38:19;;;;;;;25.30;12.17;;;17.30;95.70;;;;;;5114132;28;20214;-47
2022/03/25 12:40:46;;;;;;;26.43;11.90;;;17.20;95.00;;;;;;5114152;28;20612;-46